Time;durP1;ratioP1;P1;durP2;ratioP2;P2;SDS_P1;SDS_P2;PMS_P1;PMS_P2;Temp;Humidity;BMP_temperature;BMP_pressure;BME280_temperature;BME280_humidity;BME280_pressure;Samples;Min_cycle;Max_cycle;Signal;HPM_P1;HPM_P2
2023/10/08 00:00:55;;;;;;;50.38;26.45;;;;;;;15.68;100.00;95324.94;5096739;28;20448;-82
2023/10/08 00:03:21;;;;;;;43.90;24.67;;;;;;;15.69;100.00;95334.44;5097249;28;20430;-82
2023/10/08 00:05:49;;;;;;;40.80;23.13;;;;;;;15.79;100.00;95327.50;5079245;28;20024;-82
2023/10/08 00:08:16;;;;;;;35.75;22.15;;;;;;;15.76;100.00;95333.31;5095741;28;20105;-82
2023/10/08 00:10:42;;;;;;;36.80;20.92;;;;;;;15.80;100.00;95340.44;5095759;28;20370;-82
2023/10/08 00:13:09;;;;;;;37.65;21.95;;;;;;;15.83;100.00;95347.03;5095716;28;20430;-82
2023/10/08 00:15:41;;;;;;;32.67;19.50;;;;;;;15.86;100.00;95335.91;5095687;28;20024;-82
2023/10/08 00:18:07;;;;;;;31.83;19.00;;;;;;;15.64;100.00;95329.22;5095542;28;20031;-82
2023/10/08 00:20:42;;;;;;;37.17;19.48;;;;;;;15.78;100.00;95333.84;5096962;28;20341;-82
2023/10/08 00:23:10;;;;;;;32.78;17.92;;;;;;;15.96;100.00;95330.56;5096821;28;20434;-82
2023/10/08 00:25:40;;;;;;;35.40;18.33;;;;;;;16.01;100.00;95323.66;5095537;28;20062;-82
2023/10/08 00:28:10;;;;;;;36.20;17.83;;;;;;;15.99;100.00;95334.50;5079303;28;20024;-82
2023/10/08 00:30:39;;;;;;;38.38;19.45;;;;;;;15.88;100.00;95323.19;5095349;28;20122;-82
2023/10/08 00:33:04;;;;;;;33.08;18.80;;;;;;;15.86;100.00;95337.78;5078636;28;20028;-82
2023/10/08 00:35:30;;;;;;;33.80;19.67;;;;;;;15.86;100.00;95333.25;5096446;28;20028;-82
2023/10/08 00:38:00;;;;;;;40.70;19.95;;;;;;;15.98;100.00;95322.34;5095067;28;20054;-82
2023/10/08 00:40:38;;;;;;;32.90;19.38;;;;;;;15.95;100.00;95323.72;5095324;28;20020;-82
2023/10/08 00:43:11;;;;;;;38.38;20.42;;;;;;;15.97;100.00;95324.22;5095186;28;20024;-82
2023/10/08 00:45:42;;;;;;;33.90;18.98;;;;;;;15.97;100.00;95324.22;5096417;28;20024;-82
2023/10/08 00:48:09;;;;;;;34.47;20.85;;;;;;;15.94;100.00;95323.97;5095072;28;20028;-81
2023/10/08 00:50:42;;;;;;;35.22;18.98;;;;;;;15.98;100.00;95322.34;5095029;28;20058;-82
2023/10/08 00:53:11;;;;;;;40.05;19.40;;;;;;;15.93;100.00;95320.56;5095087;28;20024;-82
2023/10/08 00:55:37;;;;;;;35.63;19.20;;;;;;;15.83;100.00;95317.97;5078549;28;20026;-82
2023/10/08 00:58:09;;;;;;;33.20;18.95;;;;;;;15.73;100.00;95315.41;5078191;28;20019;-82
2023/10/08 01:00:40;;;;;;;31.25;19.08;;;;;;;15.77;100.00;95319.06;5094908;28;20077;-82
2023/10/08 01:03:14;;;;;;;38.80;20.73;;;;;;;15.86;100.00;95314.75;5094908;28;20023;-81
2023/10/08 01:05:46;;;;;;;36.45;19.42;;;;;;;15.92;100.00;95310.25;5079224;28;20038;-82
2023/10/08 01:08:34;;;;;;;39.63;21.45;;;;;;;15.82;100.00;95305.81;5095821;28;20020;-82
2023/10/08 01:11:00;;;;;;;36.72;20.50;;;;;;;15.64;100.00;95307.28;5080576;28;20035;-82
2023/10/08 01:13:27;;;;;;;33.63;16.52;;;;;;;15.45;100.00;95304.50;5095817;28;20032;-82
2023/10/08 01:15:52;;;;;;;26.85;16.63;;;;;;;15.41;100.00;95291.84;5094332;28;20024;-82
2023/10/08 01:18:28;;;;;;;33.38;18.70;;;;;;;15.47;100.00;95291.81;5094442;28;20028;-81
2023/10/08 01:20:54;;;;;;;38.85;21.95;;;;;;;15.34;100.00;95288.72;5095663;28;20512;-82
2023/10/08 01:23:27;;;;;;;41.35;22.15;;;;;;;15.04;100.00;95287.84;5095807;28;20024;-82
2023/10/08 01:25:57;;;;;;;39.30;22.35;;;;;;;15.02;100.00;95286.56;5078811;28;20086;-82
2023/10/08 01:28:33;;;;;;;37.47;19.42;;;;;;;15.09;100.00;95293.13;5094345;28;20042;-82
2023/10/08 01:31:03;;;;;;;29.38;17.50;;;;;;;14.96;100.00;95297.13;5094485;28;20028;-82
2023/10/08 01:33:29;;;;;;;32.63;16.90;;;;;;;14.89;100.00;95298.47;5078073;28;20427;-81
2023/10/08 01:36:01;;;;;;;27.77;17.40;;;;;;;14.70;100.00;95291.97;5093803;28;20035;-82
2023/10/08 01:38:28;;;;;;;29.23;17.23;;;;;;;14.80;100.00;95293.78;5094121;28;20433;-81
2023/10/08 01:40:53;;;;;;;36.10;20.20;;;;;;;14.52;100.00;95295.97;5077094;28;20043;-81
2023/10/08 01:43:20;;;;;;;38.42;22.23;;;;;;;14.56;100.00;95283.03;5093253;28;20028;-82
2023/10/08 01:45:49;;;;;;;56.42;22.45;;;;;;;14.44;100.00;95285.97;5093075;28;20027;-82
2023/10/08 01:48:20;;;;;;;38.03;21.63;;;;;;;14.21;100.00;95290.81;5094183;28;20342;-81
2023/10/08 01:50:47;;;;;;;41.28;22.92;;;;;;;14.42;100.00;95288.91;5093738;28;20024;-82
2023/10/08 01:53:15;;;;;;;33.78;20.45;;;;;;;14.33;100.00;95285.22;5076825;28;20123;-81
2023/10/08 01:55:48;;;;;;;33.33;19.85;;;;;;;14.24;100.00;95284.97;5093387;28;20432;-81
2023/10/08 01:58:16;;;;;;;33.55;19.73;;;;;;;14.27;100.00;95283.66;5093800;28;20032;-81
2023/10/08 02:00:52;;;;;;;38.20;21.75;;;;;;;14.33;100.00;95290.50;5093556;28;20146;-81
2023/10/08 02:03:18;;;;;;;34.47;21.00;;;;;;;14.33;100.00;95284.41;5093529;28;20020;-81
2023/10/08 02:05:47;;;;;;;41.15;23.42;;;;;;;14.48;100.00;95279.09;5093498;28;20101;-82
2023/10/08 02:08:13;;;;;;;46.90;22.83;;;;;;;14.64;100.00;95279.84;5093335;28;20110;-82
2023/10/08 02:10:40;;;;;;;40.13;22.40;;;;;;;14.93;100.00;95281.84;5093811;28;20031;-82
2023/10/08 02:13:09;;;;;;;39.97;22.25;;;;;;;14.83;100.00;95280.06;5094546;28;20448;-82
2023/10/08 02:15:45;;;;;;;32.10;19.83;;;;;;;14.92;100.00;95279.47;5077233;28;20024;-82
2023/10/08 02:18:11;;;;;;;34.20;20.15;;;;;;;14.78;100.00;95277.44;5093139;28;20490;-81
2023/10/08 02:20:36;;;;;;;37.33;20.00;;;;;;;14.62;100.00;95281.97;5093369;28;20024;-81
2023/10/08 02:23:03;;;;;;;40.13;22.20;;;;;;;14.65;100.00;95286.69;5094319;28;20035;-81
2023/10/08 02:25:29;;;;;;;38.30;22.02;;;;;;;14.53;100.00;95276.47;5076853;28;20349;-81
2023/10/08 02:27:54;;;;;;;52.05;26.30;;;;;;;14.55;100.00;95278.81;5092990;28;20032;-81
2023/10/08 02:30:20;;;;;;;55.33;31.70;;;;;;;14.47;100.00;95279.38;5094344;28;20445;-81
2023/10/08 02:32:46;;;;;;;59.05;31.30;;;;;;;14.45;100.00;95282.28;5094337;28;20036;-81
2023/10/08 02:35:12;;;;;;;59.55;30.85;;;;;;;14.46;100.00;95268.03;5093365;28;20027;-84
2023/10/08 02:37:39;;;;;;;48.70;26.30;;;;;;;14.42;100.00;95274.91;5093045;28;20024;-84
2023/10/08 02:40:14;;;;;;;65.95;28.30;;;;;;;14.46;100.00;95272.53;5076750;28;20032;-84
2023/10/08 02:42:41;;;;;;;54.20;30.20;;;;;;;14.42;100.00;95269.63;5093339;28;20020;-84
2023/10/08 02:45:13;;;;;;;49.88;26.90;;;;;;;14.33;100.00;95269.41;5093420;28;20024;-84
2023/10/08 02:47:44;;;;;;;46.10;23.98;;;;;;;14.37;100.00;95269.66;5093187;28;20620;-84
2023/10/08 02:50:11;;;;;;;44.25;25.13;;;;;;;14.11;100.00;95275.00;5093719;28;20027;-84
2023/10/08 02:52:36;;;;;;;46.20;25.83;;;;;;;14.21;100.00;95274.19;5094841;28;20420;-84
2023/10/08 02:55:01;;;;;;;41.00;23.25;;;;;;;14.31;100.00;95268.09;5076676;28;20032;-84
2023/10/08 02:57:29;;;;;;;36.75;21.08;;;;;;;14.24;100.00;95268.38;5093492;28;20046;-84
2023/10/08 02:59:55;;;;;;;38.20;19.45;;;;;;;14.26;100.00;95267.06;5094662;28;20032;-84
2023/10/08 03:02:21;;;;;;;38.75;20.75;;;;;;;14.39;100.00;95259.63;5093160;28;20030;-84
2023/10/08 03:04:52;;;;;;;42.85;24.70;;;;;;;14.62;100.00;95255.59;5093249;28;20152;-84
2023/10/08 03:07:21;;;;;;;45.15;22.58;;;;;;;14.79;100.00;95265.03;5077089;28;20516;-84
2023/10/08 03:09:51;;;;;;;32.72;18.73;;;;;;;14.52;100.00;95259.06;5096727;28;20027;-84
2023/10/08 03:12:17;;;;;;;35.13;20.17;;;;;;;14.60;100.00;95267.47;5096875;28;20024;-84
2023/10/08 03:15:01;;;;;;;37.50;19.58;;;;;;;14.33;100.00;95264.13;5076823;28;20060;-84
2023/10/08 03:17:29;;;;;;;50.90;25.98;;;;;;;14.27;100.00;95257.28;5076761;28;20555;-84
2023/10/08 03:20:01;;;;;;;41.20;23.90;;;;;;;14.35;100.00;95258.59;5076620;28;20028;-84
2023/10/08 03:22:33;;;;;;;33.65;20.33;;;;;;;14.43;100.00;95260.66;5074854;28;20094;-84
2023/10/08 03:25:09;;;;;;;31.55;19.05;;;;;;;14.39;100.00;95255.13;5098108;28;20027;-84
2023/10/08 03:27:41;;;;;;;34.50;16.60;;;;;;;14.75;100.00;95256.88;5096863;28;20166;-84
2023/10/08 03:30:13;;;;;;;30.02;15.48;;;;;;;15.12;100.00;95255.63;5081015;28;20112;-84
2023/10/08 03:32:41;;;;;;;27.10;15.32;;;;;;;15.40;100.00;95257.78;5096777;28;20038;-85
2023/10/08 03:35:10;;;;;;;22.50;14.18;;;;;;;15.50;100.00;95260.38;5096751;28;20450;-85
2023/10/08 03:37:42;;;;;;;23.00;14.43;;;;;;;15.36;100.00;95267.34;5096652;28;20028;-83
2023/10/08 03:40:42;;;;;;;27.60;15.35;;;;;;;15.13;100.00;95267.75;5096739;28;20027;-84
2023/10/08 03:43:15;;;;;;;28.02;15.93;;;;;;;14.86;100.00;95262.09;5097706;28;20020;-84
2023/10/08 03:45:59;;;;;;;26.40;14.38;;;;;;;14.98;100.00;95265.97;5096636;28;20120;-84
2023/10/08 03:48:25;;;;;;;23.75;13.55;;;;;;;15.12;100.00;95263.53;5096824;28;20413;-84
2023/10/08 03:51:06;;;;;;;25.88;13.73;;;;;;;15.19;100.00;95280.91;5079626;28;20034;-84
2023/10/08 03:53:34;;;;;;;24.73;13.60;;;;;;;15.35;100.00;95274.47;5081769;28;20026;-84
2023/10/08 03:56:06;;;;;;;22.40;13.07;;;;;;;15.31;100.00;95272.66;5096347;28;20073;-84
2023/10/08 03:58:38;;;;;;;29.15;14.75;;;;;;;15.24;100.00;95267.69;5096181;28;20024;-84
2023/10/08 04:01:10;;;;;;;24.52;13.85;;;;;;;15.57;100.00;95270.59;5096217;28;20020;-84
2023/10/08 04:03:58;;;;;;;20.52;12.23;;;;;;;15.73;100.00;95262.56;5078893;28;20336;-84
2023/10/08 04:11:35;;;;;;;21.30;12.15;;;;;;;15.76;100.00;95262.78;5096417;28;20031;-84
2023/10/08 04:14:04;;;;;;;20.95;11.65;;;;;;;15.66;100.00;95263.69;5095877;28;20224;-84
2023/10/08 04:16:37;;;;;;;18.67;11.68;;;;;;;15.47;100.00;95254.84;5095828;28;20032;-84
2023/10/08 04:19:03;;;;;;;18.30;10.38;;;;;;;15.51;100.00;95251.38;5095612;28;20107;-84
2023/10/08 04:21:29;;;;;;;22.95;10.18;;;;;;;15.67;100.00;95253.88;5079014;28;20031;-84
2023/10/08 04:23:58;;;;;;;16.52;10.13;;;;;;;15.58;100.00;95258.97;5095914;28;20437;-84
2023/10/08 04:26:24;;;;;;;21.50;11.18;;;;;;;15.62;100.00;95259.22;5095752;28;20032;-84
2023/10/08 04:29:02;;;;;;;18.27;10.80;;;;;;;15.65;100.00;95250.75;5095222;28;20028;-83
2023/10/08 04:31:43;;;;;;;17.52;10.38;;;;;;;15.54;100.00;95257.97;5079466;28;20028;-84
2023/10/08 04:34:15;;;;;;;21.70;10.55;;;;;;;15.34;100.00;95256.25;5095645;28;20020;-84
2023/10/08 04:36:45;;;;;;;22.25;12.00;;;;;;;14.98;100.00;95249.38;5095221;28;20051;-85
2023/10/08 04:39:15;;;;;;;20.73;10.52;;;;;;;15.08;100.00;95245.88;5078739;28;20031;-85
2023/10/08 04:41:45;;;;;;;19.45;10.88;;;;;;;15.02;100.00;95245.13;5079250;28;20122;-84
2023/10/08 04:44:14;;;;;;;23.33;10.65;;;;;;;14.86;100.00;95244.44;5095129;28;20429;-84
2023/10/08 04:46:46;;;;;;;17.73;9.90;;;;;;;15.12;100.00;95239.78;5078982;28;20084;-84
2023/10/08 04:51:48;;;;;;;17.75;9.95;;;;;;;15.22;100.00;95252.13;5095497;28;20032;-84
2023/10/08 04:54:17;;;;;;;20.70;10.32;;;;;;;14.79;100.00;95250.00;5096364;28;20024;-84
2023/10/08 04:56:43;;;;;;;18.25;9.40;;;;;;;14.85;100.00;95245.50;5095192;28;20024;-84
2023/10/08 04:59:11;;;;;;;23.77;10.32;;;;;;;14.71;100.00;95261.09;5095036;28;20024;-85
2023/10/08 05:02:12;;;;;;;17.58;9.30;;;;;;;14.74;100.00;95263.22;5095151;28;20421;-84
2023/10/08 05:04:47;;;;;;;19.98;9.90;;;;;;;15.13;100.00;95256.38;5096066;28;20034;-84
2023/10/08 05:12:50;;;;;;;14.20;8.48;;;;;;;15.39;100.00;95256.22;5095277;28;20507;-84
2023/10/08 05:18:13;;;;;;;14.70;8.40;;;;;;;15.52;100.00;95257.47;5094892;28;20085;-84
2023/10/08 05:28:35;;;;;;;13.48;7.15;;;;;;;15.33;100.00;95258.09;5094252;28;20043;-86
2023/10/08 05:34:14;;;;;;;14.52;6.65;;;;;;;15.84;100.00;95250.84;5094027;28;20064;-86
2023/10/08 05:39:29;;;;;;;14.73;6.72;;;;;;;16.14;100.00;95254.28;5094011;28;20035;-85
2023/10/08 05:44:45;;;;;;;16.23;7.20;;;;;;;15.86;100.00;95261.13;5094222;28;20489;-85
2023/10/08 05:47:37;;;;;;;16.92;7.28;;;;;;;15.74;100.00;95259.66;5076979;28;20030;-85
2023/10/08 05:55:25;;;;;;;16.10;7.05;;;;;;;15.69;100.00;95267.59;5094326;28;20032;-84
2023/10/08 05:58:13;;;;;;;13.45;6.47;;;;;;;15.64;100.00;95268.47;5093982;28;20035;-84
2023/10/08 06:03:39;;;;;;;17.70;8.75;;;;;;;15.82;100.00;95272.25;5094227;28;20024;-84
2023/10/08 06:11:41;;;;;;;15.15;7.03;;;;;;;15.95;100.00;95278.78;5072958;28;20035;-83
2023/10/08 06:14:36;;;;;;;12.23;6.47;;;;;;;16.17;100.00;95274.09;5073817;28;20035;-83
2023/10/08 06:17:13;;;;;;;12.93;6.80;;;;;;;16.24;100.00;95280.63;5073701;28;20031;-83
2023/10/08 06:19:39;;;;;;;12.55;5.97;;;;;;;16.47;100.00;95278.22;5075577;28;20464;-83
2023/10/08 06:22:05;;;;;;;15.23;7.53;;;;;;;16.49;100.00;95284.03;5093437;28;20077;-83
2023/10/08 06:24:32;;;;;;;13.02;6.50;;;;;;;16.68;100.00;95291.25;5093716;28;20036;-83
2023/10/08 06:27:04;;;;;;;10.02;5.80;;;;;;;16.69;100.00;95290.16;5094483;28;20353;-83
2023/10/08 06:29:31;;;;;;;11.73;5.80;;;;;;;16.90;100.00;95292.53;5093589;28;20030;-83
2023/10/08 06:32:01;;;;;;;11.93;6.45;;;;;;;16.99;100.00;95292.69;5093569;28;20107;-83
2023/10/08 06:34:28;;;;;;;10.75;6.20;;;;;;;17.04;100.00;95300.63;5077597;28;20346;-83
2023/10/08 06:36:55;;;;;;;10.93;5.55;;;;;;;17.13;100.00;95301.53;5078917;28;20035;-82
2023/10/08 06:39:25;;;;;;;10.38;6.00;;;;;;;17.19;100.00;95299.59;5073267;28;20028;-82
2023/10/08 06:41:53;;;;;;;13.73;6.72;;;;;;;17.18;100.00;95298.03;5075277;28;20024;-83
2023/10/08 06:44:19;;;;;;;15.25;6.57;;;;;;;17.24;100.00;95299.56;5075656;28;20031;-82
2023/10/08 06:46:45;;;;;;;13.13;6.35;;;;;;;17.26;100.00;95300.03;5097597;28;20024;-83
2023/10/08 06:49:15;;;;;;;13.02;6.78;;;;;;;17.33;100.00;95295.16;5097100;28;20024;-82
2023/10/08 06:51:43;;;;;;;12.05;6.13;;;;;;;17.47;100.00;95297.88;5097578;28;20420;-82
2023/10/08 06:54:10;;;;;;;12.68;6.45;;;;;;;17.52;100.00;95304.97;5080347;28;20484;-82
2023/10/08 06:56:36;;;;;;;16.00;7.90;;;;;;;17.47;100.00;95302.38;5081010;28;20031;-83
2023/10/08 06:59:03;;;;;;;15.98;8.13;;;;;;;17.65;100.00;95312.19;5080161;28;20027;-82
2023/10/08 07:01:38;;;;;;;16.60;7.97;;;;;;;17.66;100.00;95305.81;5085007;28;20074;-82
2023/10/08 07:04:12;;;;;;;12.55;7.55;;;;;;;17.85;100.00;95312.94;5076669;28;20102;-83
2023/10/08 07:06:43;;;;;;;;;;;;;;;17.81;100.00;95311.94;5078293;28;20060;-82
2023/10/08 07:09:23;;;;;;;14.65;8.27;;;;;;;17.78;100.00;95308.00;5077996;28;19912;-82
2023/10/08 07:11:57;;;;;;;19.00;7.93;;;;;;;17.80;100.00;95302.44;5076595;28;20032;-82
2023/10/08 07:14:27;;;;;;;15.30;6.25;;;;;;;18.06;100.00;95305.47;5060394;28;20105;-82
2023/10/08 07:17:08;;;;;;;16.25;8.13;;;;;;;18.12;100.00;95314.13;5059885;28;20024;-82
2023/10/08 07:19:37;;;;;;;17.95;8.80;;;;;;;18.19;100.00;95313.72;5077309;28;20024;-82
2023/10/08 07:22:17;;;;;;;20.10;9.82;;;;;;;18.15;100.00;95312.75;5060263;28;20680;-82
2023/10/08 07:24:45;;;;;;;10.85;6.13;;;;;;;18.17;100.00;95311.38;5061845;28;20437;-82
2023/10/08 07:27:11;;;;;;;13.40;7.15;;;;;;;18.32;100.00;95310.31;5059925;28;20357;-82
2023/10/08 07:29:37;;;;;;;12.63;7.78;;;;;;;18.51;100.00;95312.09;5077274;28;20507;-82
2023/10/08 07:32:09;;;;;;;14.40;7.63;;;;;;;18.60;100.00;95314.84;5076151;28;20052;-82
2023/10/08 07:34:39;;;;;;;12.77;7.73;;;;;;;18.65;100.00;95310.22;5077440;28;20074;-82
2023/10/08 07:37:11;;;;;;;10.88;6.25;;;;;;;18.79;100.00;95314.75;5097493;28;20054;-82
2023/10/08 07:39:45;;;;;;;13.65;7.38;;;;;;;18.78;100.00;95316.59;5096288;28;20030;-83
2023/10/08 07:42:10;;;;;;;19.65;7.03;;;;;;;18.98;100.00;95319.13;5096347;28;20118;-82
2023/10/08 07:44:36;;;;;;;11.85;6.85;;;;;;;18.99;100.00;95318.88;5079493;28;20115;-82
2023/10/08 07:47:04;;;;;;;14.05;7.32;;;;;;;19.19;100.00;95324.84;5079089;28;20021;-82
2023/10/08 07:49:35;;;;;;;14.25;6.55;;;;;;;19.22;100.00;95321.56;5071347;28;20070;-82
2023/10/08 07:52:01;;;;;;;12.30;6.43;;;;;;;19.31;100.00;95321.69;5075564;28;20025;-82
2023/10/08 07:54:34;;;;;;;10.75;6.72;;;;;;;19.40;100.00;95321.75;5090532;28;20035;-82
2023/10/08 07:57:09;;;;;;;12.60;6.22;;;;;;;19.53;100.00;95326.22;5080236;28;20047;-82
2023/10/08 07:59:38;;;;;;;12.00;6.70;;;;;;;19.47;100.00;95324.75;5097514;28;20502;-82
2023/10/08 08:02:09;;;;;;;10.25;6.30;;;;;;;19.54;100.00;95319.84;5096210;28;20024;-82
2023/10/08 08:04:36;;;;;;;14.38;7.20;;;;;;;19.58;100.00;95320.78;5079474;28;20028;-82
2023/10/08 08:07:04;;;;;;;15.40;7.10;;;;;;;19.61;100.00;95320.19;5095473;28;20074;-83
2023/10/08 08:09:30;;;;;;;11.43;7.03;;;;;;;19.74;100.00;95321.22;5095562;28;20024;-82
2023/10/08 08:11:57;;;;;;;10.73;6.68;;;;;;;19.85;100.00;95320.97;5094303;28;20493;-82
2023/10/08 08:14:24;;;;;;;13.18;6.90;;;;;;;19.99;100.00;95320.94;5095278;28;20058;-82
2023/10/08 08:16:50;;;;;;;11.02;6.70;;;;;;;20.12;100.00;95328.06;5095201;28;20023;-79
2023/10/08 08:19:16;;;;;;;12.60;6.53;;;;;;;20.21;100.00;95322.78;5078830;28;20024;-81
2023/10/08 08:21:45;;;;;;;18.30;6.45;;;;;;;20.30;100.00;95322.81;5095285;28;20322;-81
2023/10/08 08:24:12;;;;;;;12.70;6.78;;;;;;;20.27;100.00;95321.56;5097017;28;20028;-81
2023/10/08 08:27:00;;;;;;;14.25;6.93;;;;;;;20.29;100.00;95329.25;5095632;28;20078;-81
2023/10/08 08:29:26;;;;;;;13.35;6.55;;;;;;;20.31;100.00;95319.88;5095061;28;20043;-81
2023/10/08 08:31:53;;;;;;;13.55;7.07;;;;;;;20.45;100.00;95329.63;5077951;28;20056;-81
2023/10/08 08:34:19;;;;;;;14.93;6.60;;;;;;;20.61;100.00;95324.66;5096151;28;20225;-82
2023/10/08 08:36:48;;;;;;;13.00;6.97;;;;;;;20.56;100.00;95327.47;5094208;28;20119;-82
2023/10/08 08:39:28;;;;;;;11.18;6.32;;;;;;;20.71;100.00;95318.28;5093885;28;20047;-81
2023/10/08 08:41:58;;;;;;;17.63;6.65;;;;;;;20.92;100.00;95321.19;5094981;28;20024;-81
2023/10/08 08:44:32;;;;;;;12.52;6.30;;;;;;;20.96;98.13;95314.16;5094422;28;20031;-81
2023/10/08 08:46:58;;;;;;;;;;;;;;;21.14;94.10;95311.53;5095249;28;20069;-81
2023/10/08 08:49:24;;;;;;;13.48;6.90;;;;;;;21.29;98.58;95320.91;5094574;28;19908;-81
2023/10/08 08:51:53;;;;;;;12.35;6.05;;;;;;;21.39;95.84;95314.53;5094300;28;20028;-81
2023/10/08 08:54:20;;;;;;;14.07;6.22;;;;;;;21.53;90.85;95312.47;5093991;28;20023;-80
2023/10/08 08:56:46;;;;;;;10.85;6.15;;;;;;;21.64;90.50;95312.16;5094160;28;20411;-81
2023/10/08 08:59:11;;;;;;;11.18;6.95;;;;;;;21.77;93.56;95307.78;5077757;28;20032;-81
2023/10/08 09:01:38;;;;;;;9.18;5.35;;;;;;;21.88;87.39;95312.47;5092886;28;20024;-82
2023/10/08 09:04:05;;;;;;;12.32;6.10;;;;;;;22.02;85.72;95308.84;5094278;28;20039;-82
2023/10/08 09:06:34;;;;;;;15.55;6.28;;;;;;;22.17;79.50;95311.00;5077845;28;20435;-82
2023/10/08 09:11:45;;;;;;;11.77;5.90;;;;;;;22.29;80.44;95312.22;5094619;28;20039;-82
2023/10/08 09:14:10;;;;;;;10.75;5.65;;;;;;;22.33;81.96;95304.38;5095082;28;20040;-82
2023/10/08 09:16:36;;;;;;;13.18;6.28;;;;;;;22.40;81.78;95312.66;5077624;28;20024;-82
2023/10/08 09:19:02;;;;;;;13.27;5.97;;;;;;;22.51;78.48;95303.22;5094236;28;20104;-82
2023/10/08 09:21:27;;;;;;;11.95;5.90;;;;;;;22.66;83.23;95307.22;5077741;28;20031;-82
2023/10/08 09:23:54;;;;;;;10.10;5.70;;;;;;;22.79;76.38;95307.31;5078514;28;20082;-82
2023/10/08 09:26:24;;;;;;;13.45;5.75;;;;;;;22.85;73.86;95300.69;5073870;28;20028;-82
2023/10/08 09:28:51;;;;;;;9.73;6.00;;;;;;;22.95;74.92;95300.28;5073525;28;20425;-82
2023/10/08 09:31:17;;;;;;;10.30;5.53;;;;;;;23.05;74.10;95309.84;5073781;28;20094;-82
2023/10/08 09:33:44;;;;;;;14.20;5.93;;;;;;;23.16;71.15;95304.91;5075057;28;20040;-82
2023/10/08 09:36:18;;;;;;;11.07;5.60;;;;;;;23.28;69.10;95307.69;5074366;28;20063;-82
2023/10/08 09:38:44;;;;;;;11.70;5.78;;;;;;;23.38;66.84;95303.81;5073881;28;20024;-82
2023/10/08 09:41:11;;;;;;;12.20;5.35;;;;;;;23.48;67.18;95299.19;5073904;28;20131;-82
2023/10/08 09:43:38;;;;;;;7.70;4.63;;;;;;;23.63;64.40;95295.13;5073874;28;20028;-82
2023/10/08 09:46:07;;;;;;;9.23;4.60;;;;;;;23.77;63.26;95295.63;5073665;28;20468;-82
2023/10/08 09:48:36;;;;;;;13.57;5.10;;;;;;;23.84;62.70;95290.53;5090537;28;20035;-82
2023/10/08 09:51:06;;;;;;;14.18;5.60;;;;;;;23.98;61.43;95297.47;5073717;28;20036;-82
2023/10/08 09:53:53;;;;;;;12.45;4.80;;;;;;;24.05;60.82;95291.63;5085915;28;20100;-82
2023/10/08 09:56:20;;;;;;;10.27;5.03;;;;;;;24.19;61.20;95292.09;5077402;28;20060;-82
2023/10/08 09:58:49;;;;;;;12.23;4.78;;;;;;;24.27;59.32;95298.47;5093836;28;20476;-82
2023/10/08 10:01:16;;;;;;;18.15;5.22;;;;;;;24.41;57.67;95296.25;5077308;28;20082;-82
2023/10/08 10:03:42;;;;;;;12.15;4.47;;;;;;;24.64;58.70;95298.47;5093983;28;20460;-82
2023/10/08 10:06:12;;;;;;;10.70;4.63;;;;;;;24.71;57.54;95301.38;5093548;28;20063;-82
2023/10/08 10:08:38;;;;;;;10.23;4.95;;;;;;;24.76;55.20;95295.06;5093368;28;20043;-81
2023/10/08 10:11:03;;;;;;;11.63;5.15;;;;;;;24.81;54.04;95297.50;5076848;28;20027;-81
2023/10/08 10:13:34;;;;;;;7.32;4.13;;;;;;;24.87;51.33;95292.69;5093240;28;20039;-81
2023/10/08 10:15:59;;;;;;;9.48;4.43;;;;;;;25.00;52.90;95285.41;5094123;28;20024;-81
2023/10/08 10:18:25;;;;;;;12.30;4.40;;;;;;;25.19;53.83;95287.50;5098638;28;20027;-81
2023/10/08 10:20:59;;;;;;;8.70;4.40;;;;;;;25.30;53.24;95287.03;5097397;28;20039;-81
2023/10/08 10:23:39;;;;;;;12.85;4.60;;;;;;;25.81;53.33;95284.59;5081323;28;20353;-82
2023/10/08 10:26:40;;;;;;;11.18;4.53;;;;;;;25.69;52.03;95276.63;5097506;28;20039;-82
2023/10/08 10:29:14;;;;;;;8.85;4.30;;;;;;;25.89;47.84;95282.13;5097554;28;20024;-82
2023/10/08 10:31:53;;;;;;;9.90;4.10;;;;;;;25.88;48.71;95285.94;5098467;28;20024;-82
2023/10/08 10:34:26;;;;;;;13.13;4.43;;;;;;;25.95;48.19;95273.47;5097661;28;20028;-82
2023/10/08 10:36:56;;;;;;;8.98;4.05;;;;;;;26.02;46.05;95270.19;5097474;28;20032;-81
2023/10/08 10:39:33;;;;;;;9.90;3.83;;;;;;;26.14;46.81;95274.69;5098949;28;20154;-82
2023/10/08 10:42:01;;;;;;;11.32;3.83;;;;;;;26.23;46.00;95263.81;5097477;28;20028;-82
2023/10/08 10:44:29;;;;;;;15.35;3.65;;;;;;;26.34;46.53;95259.47;5097150;28;20020;-82
2023/10/08 10:49:52;;;;;;;17.25;4.22;;;;;;;26.49;45.75;95259.81;5097390;28;20032;-82
2023/10/08 10:52:32;;;;;;;11.95;3.92;;;;;;;26.78;42.64;95260.47;5096869;28;20386;-82
2023/10/08 10:55:17;;;;;;;16.35;3.72;;;;;;;26.80;44.86;95250.94;5097109;28;20048;-82
2023/10/08 10:57:54;;;;;;;23.50;4.28;;;;;;;26.95;40.53;95246.66;5097311;28;20027;-82
2023/10/08 11:02:59;;;;;;;16.90;3.42;;;;;;;27.10;37.90;95255.03;5097073;28;20338;-83
2023/10/08 11:05:28;;;;;;;16.27;3.40;;;;;;;27.16;39.03;95250.94;5096850;28;20032;-82
2023/10/08 11:08:06;;;;;;;14.07;3.50;;;;;;;27.09;41.63;95253.47;5096562;28;20051;-82
2023/10/08 11:10:38;;;;;;;13.07;4.35;;;;;;;27.16;41.85;95255.53;5081327;28;20341;-82
2023/10/08 11:13:05;;;;;;;14.50;4.40;;;;;;;27.12;41.84;95255.47;5096552;28;20138;-82
2023/10/08 11:15:40;;;;;;;11.15;4.70;;;;;;;27.09;42.62;95256.16;5096729;28;20030;-82
2023/10/08 11:18:15;;;;;;;10.38;4.35;;;;;;;27.09;41.94;95248.09;5097459;28;20431;-82
2023/10/08 11:20:43;;;;;;;9.43;4.78;;;;;;;27.19;42.48;95238.72;5079904;28;20344;-81
2023/10/08 11:23:18;;;;;;;15.95;3.97;;;;;;;27.24;41.54;95233.03;5079787;28;20035;-82
2023/10/08 11:26:02;;;;;;;15.52;4.72;;;;;;;27.27;41.24;95236.94;5096235;28;20028;-82
2023/10/08 11:28:27;;;;;;;18.50;4.75;;;;;;;27.25;40.73;95231.91;5079094;28;20126;-82
2023/10/08 11:30:53;;;;;;;10.43;4.05;;;;;;;27.42;41.19;95230.72;5095894;28;20162;-83
2023/10/08 11:33:19;;;;;;;16.33;4.45;;;;;;;27.49;40.33;95217.38;5096031;28;20081;-83
2023/10/08 11:36:01;;;;;;;17.27;3.70;;;;;;;27.63;39.97;95216.09;5095839;28;20024;-82
2023/10/08 11:38:27;;;;;;;14.57;4.35;;;;;;;27.59;39.35;95217.97;5079470;28;20035;-82
2023/10/08 11:40:56;;;;;;;16.08;3.95;;;;;;;27.75;41.05;95224.03;5093228;28;20339;-82
2023/10/08 11:43:25;;;;;;;12.70;3.95;;;;;;;27.89;39.90;95214.63;5095769;28;20020;-82
2023/10/08 11:45:51;;;;;;;17.90;3.85;;;;;;;27.82;32.42;95212.59;5095868;28;20131;-82
2023/10/08 11:48:25;;;;;;;17.50;3.35;;;;;;;27.88;32.43;95211.16;5095680;28;20058;-82
2023/10/08 11:50:52;;;;;;;16.48;3.00;;;;;;;27.95;35.17;95207.81;5091221;28;20043;-82
2023/10/08 11:53:19;;;;;;;21.40;5.00;;;;;;;28.10;35.13;95206.13;5075862;28;20504;-82
2023/10/08 11:55:45;;;;;;;14.63;3.28;;;;;;;28.21;34.07;95209.03;5075855;28;20358;-82
2023/10/08 11:58:10;;;;;;;21.77;2.97;;;;;;;28.14;31.81;95206.97;5092141;28;20055;-82
2023/10/08 12:00:46;;;;;;;16.98;2.97;;;;;;;28.28;32.84;95197.59;5058957;28;20029;-83
2023/10/08 12:03:18;;;;;;;21.35;3.13;;;;;;;28.03;32.68;95196.03;5059946;28;20024;-83
2023/10/08 12:05:47;;;;;;;24.83;3.67;;;;;;;28.15;32.02;95200.44;5075592;28;20066;-81
2023/10/08 12:08:22;;;;;;;26.70;3.30;;;;;;;28.25;33.89;95191.00;5075198;28;20056;-81
2023/10/08 12:10:49;;;;;;;14.15;2.70;;;;;;;28.21;33.09;95193.66;5075195;28;20098;-81
2023/10/08 12:13:18;;;;;;;19.42;3.35;;;;;;;28.24;32.08;95192.13;5075225;28;20484;-81
2023/10/08 12:15:44;;;;;;;14.68;2.67;;;;;;;28.43;33.37;95185.88;5091397;28;20024;-82
2023/10/08 12:18:25;;;;;;;17.00;2.70;;;;;;;28.71;32.83;95183.97;5091861;28;20074;-82
2023/10/08 12:20:52;;;;;;;19.00;3.80;;;;;;;28.74;33.26;95181.28;5060578;28;20081;-82
2023/10/08 12:23:26;;;;;;;18.52;3.97;;;;;;;28.45;33.14;95180.91;5091593;28;20118;-83
2023/10/08 12:25:56;;;;;;;22.48;4.03;;;;;;;28.62;34.11;95186.91;5090638;28;20028;-82